sensor_id;sensor_type;location;lat;lon;timestamp;pressure;altitude;pressure_sealevel;temperature;humidity
7105;BME280;3594;42.152;24.714;2023-06-19T00:00:53;61665.03;;;20.76;nan
7105;BME280;3594;42.152;24.714;2023-06-19T00:03:19;61699.38;;;20.88;nan
7105;BME280;3594;42.152;24.714;2023-06-19T00:05:44;61588.31;;;20.72;nan
7105;BME280;3594;42.152;24.714;2023-06-19T00:08:10;61676.78;;;20.63;nan
7105;BME280;3594;42.152;24.714;2023-06-19T00:10:35;61698.97;;;20.51;nan
7105;BME280;3594;42.152;24.714;2023-06-19T00:13:01;61627.19;;;20.49;nan
7105;BME280;3594;42.152;24.714;2023-06-19T00:15:26;61743.91;;;20.54;nan
7105;BME280;3594;42.152;24.714;2023-06-19T00:17:58;61523.72;;;20.19;nan
7105;BME280;3594;42.152;24.714;2023-06-19T00:20:24;61961.66;;;20.56;nan
7105;BME280;3594;42.152;24.714;2023-06-19T00:22:49;61617.94;;;20.50;nan
7105;BME280;3594;42.152;24.714;2023-06-19T00:25:20;61650.41;;;20.70;nan
7105;BME280;3594;42.152;24.714;2023-06-19T00:27:46;61692.97;;;20.48;nan
7105;BME280;3594;42.152;24.714;2023-06-19T00:30:13;61593.41;;;20.38;nan
7105;BME280;3594;42.152;24.714;2023-06-19T00:32:38;61610.59;;;20.44;nan
7105;BME280;3594;42.152;24.714;2023-06-19T00:35:13;61590.81;;;20.38;nan
7105;BME280;3594;42.152;24.714;2023-06-19T00:37:38;61602.81;;;20.44;nan
7105;BME280;3594;42.152;24.714;2023-06-19T00:40:08;61962.16;;;20.61;nan
7105;BME280;3594;42.152;24.714;2023-06-19T00:42:36;61955.97;;;20.51;nan
7105;BME280;3594;42.152;24.714;2023-06-19T00:45:01;61653.44;;;20.63;nan
7105;BME280;3594;42.152;24.714;2023-06-19T00:47:26;61566.81;;;20.25;nan
7105;BME280;3594;42.152;24.714;2023-06-19T00:49:52;61639.25;;;20.07;nan
7105;BME280;3594;42.152;24.714;2023-06-19T00:52:17;61577.53;;;20.23;nan
7105;BME280;3594;42.152;24.714;2023-06-19T00:54:44;61523.63;;;19.96;nan
7105;BME280;3594;42.152;24.714;2023-06-19T00:57:09;61559.03;;;20.25;nan
7105;BME280;3594;42.152;24.714;2023-06-19T00:59:35;61562.06;;;19.91;nan
7105;BME280;3594;42.152;24.714;2023-06-19T01:02:01;61868.19;;;20.19;nan
7105;BME280;3594;42.152;24.714;2023-06-19T01:04:27;61588.69;;;19.99;nan
7105;BME280;3594;42.152;24.714;2023-06-19T01:07:09;61636.69;;;19.91;nan
7105;BME280;3594;42.152;24.714;2023-06-19T01:09:44;61650.78;;;19.92;nan
7105;BME280;3594;42.152;24.714;2023-06-19T01:12:18;61521.06;;;20.08;nan
7105;BME280;3594;42.152;24.714;2023-06-19T01:15:04;61695.16;;;20.22;nan
7105;BME280;3594;42.152;24.714;2023-06-19T01:17:31;61685.22;;;20.15;nan
7105;BME280;3594;42.152;24.714;2023-06-19T01:19:57;61846.84;;;20.02;nan
7105;BME280;3594;42.152;24.714;2023-06-19T01:24:51;61677.84;;;20.25;nan
7105;BME280;3594;42.152;24.714;2023-06-19T01:27:16;61580.53;;;19.89;nan
7105;BME280;3594;42.152;24.714;2023-06-19T01:29:42;61485.72;;;19.90;nan
7105;BME280;3594;42.152;24.714;2023-06-19T01:32:13;61664.78;;;20.13;nan
7105;BME280;3594;42.152;24.714;2023-06-19T01:34:41;61519.03;;;20.08;nan
7105;BME280;3594;42.152;24.714;2023-06-19T01:37:08;61545.41;;;20.02;nan
7105;BME280;3594;42.152;24.714;2023-06-19T01:39:35;61577.25;;;20.09;nan
7105;BME280;3594;42.152;24.714;2023-06-19T01:42:02;61595.25;;;20.02;nan
7105;BME280;3594;42.152;24.714;2023-06-19T01:44:28;61498.84;;;19.69;nan
7105;BME280;3594;42.152;24.714;2023-06-19T01:46:53;61538.22;;;19.86;nan
7105;BME280;3594;42.152;24.714;2023-06-19T01:49:19;61460.84;;;19.68;nan
7105;BME280;3594;42.152;24.714;2023-06-19T01:51:45;61633.03;;;19.85;nan
7105;BME280;3594;42.152;24.714;2023-06-19T01:54:10;61502.44;;;19.75;nan
7105;BME280;3594;42.152;24.714;2023-06-19T01:56:36;61595.31;;;20.14;nan
7105;BME280;3594;42.152;24.714;2023-06-19T01:59:02;61667.66;;;19.83;nan
7105;BME280;3594;42.152;24.714;2023-06-19T02:01:27;61600.97;;;20.19;nan
7105;BME280;3594;42.152;24.714;2023-06-19T02:03:53;61574.06;;;20.09;nan
7105;BME280;3594;42.152;24.714;2023-06-19T02:06:18;61582.34;;;20.14;nan
7105;BME280;3594;42.152;24.714;2023-06-19T02:08:44;61593.19;;;20.19;nan
7105;BME280;3594;42.152;24.714;2023-06-19T02:11:09;61558.41;;;20.13;nan
7105;BME280;3594;42.152;24.714;2023-06-19T02:13:35;61590.88;;;20.05;nan
7105;BME280;3594;42.152;24.714;2023-06-19T02:16:00;61527.00;;;19.99;nan
7105;BME280;3594;42.152;24.714;2023-06-19T02:18:25;61689.09;;;20.07;nan
7105;BME280;3594;42.152;24.714;2023-06-19T02:20:51;61593.50;;;20.17;nan
7105;BME280;3594;42.152;24.714;2023-06-19T02:23:16;61569.13;;;19.83;nan
7105;BME280;3594;42.152;24.714;2023-06-19T02:25:42;61888.59;;;20.05;nan
7105;BME280;3594;42.152;24.714;2023-06-19T02:28:07;61661.31;;;19.82;nan
7105;BME280;3594;42.152;24.714;2023-06-19T02:30:33;61581.72;;;20.02;nan
7105;BME280;3594;42.152;24.714;2023-06-19T02:32:58;61529.19;;;19.78;nan
7105;BME280;3594;42.152;24.714;2023-06-19T02:35:24;61510.56;;;19.73;nan
7105;BME280;3594;42.152;24.714;2023-06-19T02:37:49;61624.53;;;19.61;nan
7105;BME280;3594;42.152;24.714;2023-06-19T02:40:14;61593.81;;;18.74;nan
7105;BME280;3594;42.152;24.714;2023-06-19T02:42:40;61701.41;;;19.63;nan
7105;BME280;3594;42.152;24.714;2023-06-19T02:45:06;61660.19;;;19.65;nan
7105;BME280;3594;42.152;24.714;2023-06-19T02:47:32;61543.84;;;19.79;nan
7105;BME280;3594;42.152;24.714;2023-06-19T02:50:02;61688.69;;;19.98;nan
7105;BME280;3594;42.152;24.714;2023-06-19T02:52:29;61532.47;;;19.85;nan
7105;BME280;3594;42.152;24.714;2023-06-19T02:54:55;61591.81;;;20.15;nan
7105;BME280;3594;42.152;24.714;2023-06-19T02:57:20;61621.16;;;20.18;nan
7105;BME280;3594;42.152;24.714;2023-06-19T02:59:46;61687.00;;;19.96;nan
7105;BME280;3594;42.152;24.714;2023-06-19T03:02:11;61597.09;;;20.11;nan
7105;BME280;3594;42.152;24.714;2023-06-19T03:04:37;61621.34;;;20.09;nan
7105;BME280;3594;42.152;24.714;2023-06-19T03:07:03;61778.13;;;20.10;nan
7105;BME280;3594;42.152;24.714;2023-06-19T03:09:28;61636.53;;;20.27;nan
7105;BME280;3594;42.152;24.714;2023-06-19T03:11:54;61740.59;;;20.90;nan
7105;BME280;3594;42.152;24.714;2023-06-19T03:14:20;61748.59;;;21.25;nan
7105;BME280;3594;42.152;24.714;2023-06-19T03:16:45;61867.00;;;21.40;nan
7105;BME280;3594;42.152;24.714;2023-06-19T03:19:11;61825.59;;;21.75;nan
7105;BME280;3594;42.152;24.714;2023-06-19T03:21:36;61932.78;;;22.08;nan
7105;BME280;3594;42.152;24.714;2023-06-19T03:24:02;61939.34;;;22.28;nan
7105;BME280;3594;42.152;24.714;2023-06-19T03:26:28;61987.13;;;22.70;nan
7105;BME280;3594;42.152;24.714;2023-06-19T03:28:53;62095.06;;;22.87;nan
7105;BME280;3594;42.152;24.714;2023-06-19T03:31:19;61891.66;;;23.20;nan
7105;BME280;3594;42.152;24.714;2023-06-19T03:33:44;62084.06;;;23.47;nan
7105;BME280;3594;42.152;24.714;2023-06-19T03:36:10;61962.16;;;23.55;nan
7105;BME280;3594;42.152;24.714;2023-06-19T03:38:36;62069.84;;;24.02;nan
7105;BME280;3594;42.152;24.714;2023-06-19T03:41:01;62280.59;;;24.27;nan
7105;BME280;3594;42.152;24.714;2023-06-19T03:43:27;62200.06;;;24.48;nan
7105;BME280;3594;42.152;24.714;2023-06-19T03:45:52;62097.69;;;24.15;nan
7105;BME280;3594;42.152;24.714;2023-06-19T03:48:18;62297.03;;;24.62;nan
7105;BME280;3594;42.152;24.714;2023-06-19T03:50:43;62060.06;;;25.12;nan
7105;BME280;3594;42.152;24.714;2023-06-19T03:55:34;62238.19;;;24.42;nan
7105;BME280;3594;42.152;24.714;2023-06-19T03:58:00;62439.63;;;25.26;nan
7105;BME280;3594;42.152;24.714;2023-06-19T04:00:25;62604.56;;;26.18;nan
7105;BME280;3594;42.152;24.714;2023-06-19T04:02:51;62581.31;;;26.76;nan
7105;BME280;3594;42.152;24.714;2023-06-19T04:05:16;62563.00;;;26.88;nan
7105;BME280;3594;42.152;24.714;2023-06-19T04:07:42;62682.94;;;27.41;nan
7105;BME280;3594;42.152;24.714;2023-06-19T04:10:07;62666.50;;;27.73;nan
7105;BME280;3594;42.152;24.714;2023-06-19T04:12:33;62835.09;;;28.38;nan
7105;BME280;3594;42.152;24.714;2023-06-19T04:14:59;62789.44;;;28.28;nan
7105;BME280;3594;42.152;24.714;2023-06-19T04:17:24;62787.59;;;28.59;nan
7105;BME280;3594;42.152;24.714;2023-06-19T04:19:50;62715.00;;;28.13;nan
7105;BME280;3594;42.152;24.714;2023-06-19T04:22:15;62669.72;;;27.73;nan
7105;BME280;3594;42.152;24.714;2023-06-19T04:24:41;62584.16;;;26.95;nan
7105;BME280;3594;42.152;24.714;2023-06-19T04:27:06;62655.91;;;27.21;nan
7105;BME280;3594;42.152;24.714;2023-06-19T04:29:34;62602.63;;;26.30;nan
7105;BME280;3594;42.152;24.714;2023-06-19T04:31:59;62743.31;;;27.41;nan
7105;BME280;3594;42.152;24.714;2023-06-19T04:34:25;62477.16;;;26.96;nan
7105;BME280;3594;42.152;24.714;2023-06-19T04:36:51;62668.91;;;26.82;nan
7105;BME280;3594;42.152;24.714;2023-06-19T04:39:17;62666.72;;;27.47;nan
7105;BME280;3594;42.152;24.714;2023-06-19T04:41:43;62381.28;;;26.18;nan
7105;BME280;3594;42.152;24.714;2023-06-19T04:44:09;62483.00;;;25.52;nan
7105;BME280;3594;42.152;24.714;2023-06-19T04:46:37;62571.94;;;26.77;nan
7105;BME280;3594;42.152;24.714;2023-06-19T04:49:03;62558.22;;;26.65;nan
7105;BME280;3594;42.152;24.714;2023-06-19T04:51:30;62536.84;;;27.11;nan
7105;BME280;3594;42.152;24.714;2023-06-19T04:53:56;62668.78;;;27.47;nan
7105;BME280;3594;42.152;24.714;2023-06-19T04:56:22;62801.84;;;27.92;nan
7105;BME280;3594;42.152;24.714;2023-06-19T04:58:47;62732.31;;;27.36;nan
7105;BME280;3594;42.152;24.714;2023-06-19T05:01:15;62622.94;;;27.22;nan
7105;BME280;3594;42.152;24.714;2023-06-19T05:03:42;62627.31;;;27.08;nan
7105;BME280;3594;42.152;24.714;2023-06-19T05:06:07;62492.28;;;26.44;nan
7105;BME280;3594;42.152;24.714;2023-06-19T05:08:34;62656.16;;;26.31;nan
7105;BME280;3594;42.152;24.714;2023-06-19T05:10:59;62633.84;;;26.72;nan
7105;BME280;3594;42.152;24.714;2023-06-19T05:13:25;62702.53;;;27.09;nan
7105;BME280;3594;42.152;24.714;2023-06-19T05:15:51;62683.81;;;27.39;nan
7105;BME280;3594;42.152;24.714;2023-06-19T05:18:16;62617.91;;;27.25;nan
7105;BME280;3594;42.152;24.714;2023-06-19T05:20:42;62544.88;;;26.63;nan
7105;BME280;3594;42.152;24.714;2023-06-19T05:23:07;62460.84;;;26.95;nan
7105;BME280;3594;42.152;24.714;2023-06-19T05:25:33;62514.63;;;26.48;nan
7105;BME280;3594;42.152;24.714;2023-06-19T05:27:59;62512.00;;;26.48;nan
7105;BME280;3594;42.152;24.714;2023-06-19T05:30:24;62506.94;;;26.38;nan
7105;BME280;3594;42.152;24.714;2023-06-19T05:32:49;62528.69;;;26.58;nan
7105;BME280;3594;42.152;24.714;2023-06-19T05:35:15;62619.03;;;26.70;nan
7105;BME280;3594;42.152;24.714;2023-06-19T05:37:40;62481.69;;;26.49;nan
7105;BME280;3594;42.152;24.714;2023-06-19T05:40:09;62505.69;;;26.70;nan
7105;BME280;3594;42.152;24.714;2023-06-19T05:42:35;62610.56;;;27.42;nan
7105;BME280;3594;42.152;24.714;2023-06-19T05:45:02;62591.91;;;27.28;nan
7105;BME280;3594;42.152;24.714;2023-06-19T05:47:28;62702.53;;;27.81;nan
7105;BME280;3594;42.152;24.714;2023-06-19T05:49:54;62633.25;;;27.32;nan
7105;BME280;3594;42.152;24.714;2023-06-19T05:52:20;62417.25;;;26.38;nan
7105;BME280;3594;42.152;24.714;2023-06-19T05:54:46;62533.34;;;26.13;nan
7105;BME280;3594;42.152;24.714;2023-06-19T05:57:12;62493.94;;;25.90;nan
7105;BME280;3594;42.152;24.714;2023-06-19T05:59:37;62248.91;;;25.40;nan
7105;BME280;3594;42.152;24.714;2023-06-19T06:02:03;62331.69;;;25.30;nan
7105;BME280;3594;42.152;24.714;2023-06-19T06:04:29;62430.25;;;25.15;nan
7105;BME280;3594;42.152;24.714;2023-06-19T06:06:56;62410.03;;;24.74;nan
7105;BME280;3594;42.152;24.714;2023-06-19T06:09:21;62220.06;;;24.77;nan
7105;BME280;3594;42.152;24.714;2023-06-19T06:11:47;62213.56;;;24.81;nan
7105;BME280;3594;42.152;24.714;2023-06-19T06:14:12;62344.19;;;25.01;nan
7105;BME280;3594;42.152;24.714;2023-06-19T06:16:38;62322.31;;;24.91;nan
7105;BME280;3594;42.152;24.714;2023-06-19T06:19:03;62284.66;;;24.70;nan
7105;BME280;3594;42.152;24.714;2023-06-19T06:21:29;62345.97;;;25.15;nan
7105;BME280;3594;42.152;24.714;2023-06-19T06:23:54;62578.91;;;25.05;nan
7105;BME280;3594;42.152;24.714;2023-06-19T06:26:20;62251.72;;;24.91;nan
7105;BME280;3594;42.152;24.714;2023-06-19T06:28:46;62308.69;;;25.19;nan
7105;BME280;3594;42.152;24.714;2023-06-19T06:31:12;62431.28;;;25.21;nan
7105;BME280;3594;42.152;24.714;2023-06-19T06:33:37;62370.00;;;25.20;nan
7105;BME280;3594;42.152;24.714;2023-06-19T06:36:03;62251.63;;;24.96;nan
7105;BME280;3594;42.152;24.714;2023-06-19T06:38:28;62374.56;;;25.24;nan
7105;BME280;3594;42.152;24.714;2023-06-19T06:40:54;62348.22;;;25.17;nan
7105;BME280;3594;42.152;24.714;2023-06-19T06:43:19;62452.09;;;25.41;nan
7105;BME280;3594;42.152;24.714;2023-06-19T06:45:45;62478.75;;;25.63;nan
7105;BME280;3594;42.152;24.714;2023-06-19T06:48:10;62363.28;;;25.48;nan
7105;BME280;3594;42.152;24.714;2023-06-19T06:50:35;62515.16;;;25.44;nan
7105;BME280;3594;42.152;24.714;2023-06-19T06:53:01;62688.84;;;25.59;nan
7105;BME280;3594;42.152;24.714;2023-06-19T06:55:26;62736.19;;;25.82;nan
7105;BME280;3594;42.152;24.714;2023-06-19T06:57:52;62431.91;;;25.93;nan
7105;BME280;3594;42.152;24.714;2023-06-19T07:00:17;62417.38;;;25.78;nan
7105;BME280;3594;42.152;24.714;2023-06-19T07:02:43;62470.59;;;25.92;nan
7105;BME280;3594;42.152;24.714;2023-06-19T07:05:10;62490.38;;;25.80;nan
7105;BME280;3594;42.152;24.714;2023-06-19T07:07:36;62374.03;;;25.63;nan
7105;BME280;3594;42.152;24.714;2023-06-19T07:10:02;62468.59;;;26.05;nan
7105;BME280;3594;42.152;24.714;2023-06-19T07:12:27;62451.75;;;26.04;nan
7105;BME280;3594;42.152;24.714;2023-06-19T07:14:53;62572.72;;;26.09;nan
7105;BME280;3594;42.152;24.714;2023-06-19T07:17:19;62434.84;;;26.19;nan
7105;BME280;3594;42.152;24.714;2023-06-19T07:19:44;62265.72;;;25.80;nan
7105;BME280;3594;42.152;24.714;2023-06-19T07:22:09;62423.38;;;25.97;nan
7105;BME280;3594;42.152;24.714;2023-06-19T07:24:35;62462.03;;;26.13;nan
7105;BME280;3594;42.152;24.714;2023-06-19T07:27:00;62531.44;;;26.37;nan
7105;BME280;3594;42.152;24.714;2023-06-19T07:29:26;62385.06;;;26.19;nan
7105;BME280;3594;42.152;24.714;2023-06-19T07:31:52;62368.75;;;26.18;nan
7105;BME280;3594;42.152;24.714;2023-06-19T07:34:17;62456.69;;;26.45;nan
7105;BME280;3594;42.152;24.714;2023-06-19T07:36:43;62558.31;;;26.33;nan
7105;BME280;3594;42.152;24.714;2023-06-19T07:39:09;62422.59;;;26.33;nan
7105;BME280;3594;42.152;24.714;2023-06-19T07:41:36;62521.56;;;26.77;nan
7105;BME280;3594;42.152;24.714;2023-06-19T07:44:02;62652.69;;;26.77;nan
7105;BME280;3594;42.152;24.714;2023-06-19T07:46:27;62849.63;;;26.63;nan
7105;BME280;3594;42.152;24.714;2023-06-19T07:48:53;62482.81;;;26.50;nan
7105;BME280;3594;42.152;24.714;2023-06-19T07:51:18;62666.63;;;26.64;nan
7105;BME280;3594;42.152;24.714;2023-06-19T07:53:44;62522.13;;;26.77;nan
7105;BME280;3594;42.152;24.714;2023-06-19T07:56:09;62542.69;;;26.84;nan
7105;BME280;3594;42.152;24.714;2023-06-19T07:58:35;62568.06;;;26.97;nan
7105;BME280;3594;42.152;24.714;2023-06-19T08:01:00;62722.84;;;26.81;nan
7105;BME280;3594;42.152;24.714;2023-06-19T08:03:26;62603.00;;;27.00;nan
7105;BME280;3594;42.152;24.714;2023-06-19T08:05:52;62697.53;;;26.96;nan
7105;BME280;3594;42.152;24.714;2023-06-19T08:08:18;62643.59;;;27.24;nan
7105;BME280;3594;42.152;24.714;2023-06-19T08:10:43;62732.31;;;27.36;nan
7105;BME280;3594;42.152;24.714;2023-06-19T08:13:09;62638.59;;;27.55;nan
7105;BME280;3594;42.152;24.714;2023-06-19T08:15:36;62658.44;;;27.54;nan
7105;BME280;3594;42.152;24.714;2023-06-19T08:18:02;62722.94;;;27.53;nan
7105;BME280;3594;42.152;24.714;2023-06-19T08:20:28;62595.47;;;27.38;nan
7105;BME280;3594;42.152;24.714;2023-06-19T08:22:53;62731.16;;;27.35;nan
7105;BME280;3594;42.152;24.714;2023-06-19T08:25:19;62753.78;;;27.73;nan
7105;BME280;3594;42.152;24.714;2023-06-19T08:27:44;62640.78;;;27.61;nan
7105;BME280;3594;42.152;24.714;2023-06-19T08:30:12;62679.06;;;27.72;nan
7105;BME280;3594;42.152;24.714;2023-06-19T08:32:38;62671.06;;;27.65;nan
7105;BME280;3594;42.152;24.714;2023-06-19T08:35:04;62676.63;;;27.63;nan
7105;BME280;3594;42.152;24.714;2023-06-19T08:37:29;62740.63;;;27.73;nan
7105;BME280;3594;42.152;24.714;2023-06-19T08:39:55;62705.84;;;27.61;nan
7105;BME280;3594;42.152;24.714;2023-06-19T08:42:23;62613.66;;;27.47;nan
7105;BME280;3594;42.152;24.714;2023-06-19T08:44:49;62650.09;;;27.49;nan
7105;BME280;3594;42.152;24.714;2023-06-19T08:47:14;62763.13;;;27.72;nan
7105;BME280;3594;42.152;24.714;2023-06-19T08:49:40;62758.66;;;27.91;nan
7105;BME280;3594;42.152;24.714;2023-06-19T08:52:06;62622.75;;;27.59;nan
7105;BME280;3594;42.152;24.714;2023-06-19T08:54:32;62687.44;;;27.77;nan
7105;BME280;3594;42.152;24.714;2023-06-19T08:57:01;62719.63;;;28.01;nan
7105;BME280;3594;42.152;24.714;2023-06-19T08:59:27;62809.00;;;27.85;nan
7105;BME280;3594;42.152;24.714;2023-06-19T09:01:54;62795.56;;;28.15;nan
7105;BME280;3594;42.152;24.714;2023-06-19T09:04:24;62776.41;;;28.07;nan
7105;BME280;3594;42.152;24.714;2023-06-19T09:06:51;62758.19;;;28.42;nan
7105;BME280;3594;42.152;24.714;2023-06-19T09:09:18;62769.09;;;28.24;nan
7105;BME280;3594;42.152;24.714;2023-06-19T09:14:32;62835.63;;;28.27;nan
7105;BME280;3594;42.152;24.714;2023-06-19T09:16:58;62856.06;;;28.26;nan
7105;BME280;3594;42.152;24.714;2023-06-19T09:19:24;62817.84;;;28.11;nan
7105;BME280;3594;42.152;24.714;2023-06-19T09:21:49;62864.31;;;28.24;nan
7105;BME280;3594;42.152;24.714;2023-06-19T09:24:15;62857.63;;;28.37;nan
7105;BME280;3594;42.152;24.714;2023-06-19T09:26:40;62863.19;;;28.51;nan
7105;BME280;3594;42.152;24.714;2023-06-19T09:29:25;62838.41;;;28.89;nan
7105;BME280;3594;42.152;24.714;2023-06-19T09:31:51;62931.06;;;29.06;nan
7105;BME280;3594;42.152;24.714;2023-06-19T09:34:16;62858.13;;;28.97;nan
7105;BME280;3594;42.152;24.714;2023-06-19T09:36:42;62944.19;;;29.22;nan
7105;BME280;3594;42.152;24.714;2023-06-19T09:39:09;62977.13;;;29.42;nan
7105;BME280;3594;42.152;24.714;2023-06-19T09:41:36;62901.94;;;29.27;nan
7105;BME280;3594;42.152;24.714;2023-06-19T09:44:03;62901.47;;;29.22;nan
7105;BME280;3594;42.152;24.714;2023-06-19T09:46:37;62929.34;;;29.32;nan
7105;BME280;3594;42.152;24.714;2023-06-19T09:49:06;62936.63;;;29.48;nan
7105;BME280;3594;42.152;24.714;2023-06-19T09:51:37;62930.78;;;29.48;nan
7105;BME280;3594;42.152;24.714;2023-06-19T09:54:06;63018.91;;;29.60;nan
7105;BME280;3594;42.152;24.714;2023-06-19T09:56:32;62877.38;;;29.40;nan
7105;BME280;3594;42.152;24.714;2023-06-19T09:58:59;62939.84;;;29.60;nan
7105;BME280;3594;42.152;24.714;2023-06-19T10:01:27;62996.22;;;29.54;nan
7105;BME280;3594;42.152;24.714;2023-06-19T10:04:05;62960.72;;;29.58;nan
7105;BME280;3594;42.152;24.714;2023-06-19T10:06:31;63084.41;;;29.78;nan
7105;BME280;3594;42.152;24.714;2023-06-19T10:09:06;63095.00;;;29.62;nan
7105;BME280;3594;42.152;24.714;2023-06-19T10:11:51;62958.94;;;29.72;nan
7105;BME280;3594;42.152;24.714;2023-06-19T10:14:18;62949.47;;;29.50;nan
7105;BME280;3594;42.152;24.714;2023-06-19T10:16:45;63053.69;;;29.49;nan
7105;BME280;3594;42.152;24.714;2023-06-19T10:19:18;63039.13;;;29.73;nan
7105;BME280;3594;42.152;24.714;2023-06-19T10:21:45;62665.63;;;27.74;nan
7105;BME280;3594;42.152;24.714;2023-06-19T10:24:14;63169.84;;;29.68;nan
7105;BME280;3594;42.152;24.714;2023-06-19T10:26:40;62956.97;;;29.68;nan
7105;BME280;3594;42.152;24.714;2023-06-19T10:29:16;62923.16;;;29.73;nan
7105;BME280;3594;42.152;24.714;2023-06-19T10:31:43;63070.38;;;29.64;nan
7105;BME280;3594;42.152;24.714;2023-06-19T10:34:09;62968.78;;;29.76;nan
7105;BME280;3594;42.152;24.714;2023-06-19T10:36:35;63021.09;;;29.39;nan
7105;BME280;3594;42.152;24.714;2023-06-19T10:39:00;62910.09;;;28.58;nan
7105;BME280;3594;42.152;24.714;2023-06-19T10:41:26;62848.19;;;28.26;nan
7105;BME280;3594;42.152;24.714;2023-06-19T10:44:03;62719.94;;;28.27;nan
7105;BME280;3594;42.152;24.714;2023-06-19T10:46:35;62944.31;;;28.58;nan
7105;BME280;3594;42.152;24.714;2023-06-19T10:49:02;62878.47;;;28.90;nan
7105;BME280;3594;42.152;24.714;2023-06-19T10:51:30;63041.69;;;29.18;nan
7105;BME280;3594;42.152;24.714;2023-06-19T10:53:56;62823.22;;;29.02;nan
7105;BME280;3594;42.152;24.714;2023-06-19T10:56:22;64349.97;;;26.38;nan
7105;BME280;3594;42.152;24.714;2023-06-19T10:58:48;62830.25;;;28.75;nan
7105;BME280;3594;42.152;24.714;2023-06-19T11:01:22;63040.94;;;29.70;nan
7105;BME280;3594;42.152;24.714;2023-06-19T11:03:47;63065.25;;;29.71;nan
7105;BME280;3594;42.152;24.714;2023-06-19T11:06:19;63012.78;;;30.01;nan
7105;BME280;3594;42.152;24.714;2023-06-19T11:08:50;63333.00;;;30.18;nan
7105;BME280;3594;42.152;24.714;2023-06-19T11:11:17;63045.13;;;30.37;nan
7105;BME280;3594;42.152;24.714;2023-06-19T11:13:43;63085.94;;;30.33;nan
7105;BME280;3594;42.152;24.714;2023-06-19T11:16:08;63282.47;;;30.25;nan
7105;BME280;3594;42.152;24.714;2023-06-19T11:18:34;63131.63;;;30.20;nan
7105;BME280;3594;42.152;24.714;2023-06-19T11:20:59;62980.00;;;30.00;nan
7105;BME280;3594;42.152;24.714;2023-06-19T11:23:26;63174.34;;;30.09;nan
7105;BME280;3594;42.152;24.714;2023-06-19T11:25:52;63114.00;;;30.51;nan
7105;BME280;3594;42.152;24.714;2023-06-19T11:28:17;63102.69;;;30.59;nan
7105;BME280;3594;42.152;24.714;2023-06-19T11:30:47;63027.69;;;30.42;nan
7105;BME280;3594;42.152;24.714;2023-06-19T11:33:20;63150.28;;;30.55;nan
7105;BME280;3594;42.152;24.714;2023-06-19T11:35:50;63179.53;;;30.85;nan
7105;BME280;3594;42.152;24.714;2023-06-19T11:38:19;63085.25;;;30.37;nan
7105;BME280;3594;42.152;24.714;2023-06-19T11:40:46;63154.44;;;30.38;nan
7105;BME280;3594;42.152;24.714;2023-06-19T11:43:12;63162.31;;;31.09;nan
7105;BME280;3594;42.152;24.714;2023-06-19T11:45:49;63246.91;;;31.33;nan
7105;BME280;3594;42.152;24.714;2023-06-19T11:48:22;63311.09;;;31.24;nan
7105;BME280;3594;42.152;24.714;2023-06-19T11:50:48;63276.13;;;31.12;nan
7105;BME280;3594;42.152;24.714;2023-06-19T11:53:13;63212.72;;;31.40;nan
7105;BME280;3594;42.152;24.714;2023-06-19T11:55:39;63229.88;;;31.20;nan
7105;BME280;3594;42.152;24.714;2023-06-19T11:58:04;63012.78;;;29.29;nan
7105;BME280;3594;42.152;24.714;2023-06-19T12:00:30;63230.03;;;30.55;nan
7105;BME280;3594;42.152;24.714;2023-06-19T12:02:55;63186.03;;;31.26;nan
7105;BME280;3594;42.152;24.714;2023-06-19T12:05:22;63199.13;;;31.30;nan
7105;BME280;3594;42.152;24.714;2023-06-19T12:07:47;63223.09;;;31.49;nan
7105;BME280;3594;42.152;24.714;2023-06-19T12:10:13;63375.25;;;31.76;nan
7105;BME280;3594;42.152;24.714;2023-06-19T12:12:38;63291.66;;;31.70;nan
7105;BME280;3594;42.152;24.714;2023-06-19T12:15:04;63255.22;;;31.70;nan
7105;BME280;3594;42.152;24.714;2023-06-19T12:17:30;63283.28;;;31.48;nan
7105;BME280;3594;42.152;24.714;2023-06-19T12:19:56;63257.16;;;31.35;nan
7105;BME280;3594;42.152;24.714;2023-06-19T12:22:21;63292.94;;;31.50;nan
7105;BME280;3594;42.152;24.714;2023-06-19T12:24:47;63336.47;;;31.63;nan
7105;BME280;3594;42.152;24.714;2023-06-19T12:27:12;63313.97;;;31.71;nan
7105;BME280;3594;42.152;24.714;2023-06-19T12:29:38;63279.94;;;30.97;nan
7105;BME280;3594;42.152;24.714;2023-06-19T12:32:03;63425.09;;;31.50;nan
7105;BME280;3594;42.152;24.714;2023-06-19T12:34:29;63207.72;;;31.26;nan
7105;BME280;3594;42.152;24.714;2023-06-19T12:36:55;63184.88;;;31.25;nan
7105;BME280;3594;42.152;24.714;2023-06-19T12:39:22;63189.78;;;30.87;nan
7105;BME280;3594;42.152;24.714;2023-06-19T12:41:48;63223.31;;;31.12;nan
7105;BME280;3594;42.152;24.714;2023-06-19T12:44:13;63165.06;;;30.77;nan
7105;BME280;3594;42.152;24.714;2023-06-19T12:46:38;63184.50;;;30.87;nan
7105;BME280;3594;42.152;24.714;2023-06-19T12:49:04;63248.38;;;31.20;nan
7105;BME280;3594;42.152;24.714;2023-06-19T12:51:30;63230.25;;;31.30;nan
7105;BME280;3594;42.152;24.714;2023-06-19T12:53:55;63233.88;;;31.12;nan
7105;BME280;3594;42.152;24.714;2023-06-19T12:56:21;63314.38;;;31.64;nan
7105;BME280;3594;42.152;24.714;2023-06-19T12:58:46;63343.72;;;31.67;nan
7105;BME280;3594;42.152;24.714;2023-06-19T13:01:12;63271.50;;;31.64;nan
7105;BME280;3594;42.152;24.714;2023-06-19T13:03:37;63171.41;;;31.22;nan
7105;BME280;3594;42.152;24.714;2023-06-19T13:06:03;63208.06;;;31.24;nan
7105;BME280;3594;42.152;24.714;2023-06-19T13:08:28;63237.44;;;31.22;nan
7105;BME280;3594;42.152;24.714;2023-06-19T13:10:54;63263.56;;;31.08;nan
7105;BME280;3594;42.152;24.714;2023-06-19T13:13:19;63218.91;;;31.38;nan
7105;BME280;3594;42.152;24.714;2023-06-19T13:15:44;63246.38;;;31.72;nan
7105;BME280;3594;42.152;24.714;2023-06-19T13:18:10;63328.75;;;31.93;nan
7105;BME280;3594;42.152;24.714;2023-06-19T13:20:35;63410.31;;;31.99;nan
7105;BME280;3594;42.152;24.714;2023-06-19T13:23:01;63191.06;;;31.63;nan
7105;BME280;3594;42.152;24.714;2023-06-19T13:25:27;63346.22;;;31.87;nan
7105;BME280;3594;42.152;24.714;2023-06-19T13:27:52;63285.66;;;32.01;nan
7105;BME280;3594;42.152;24.714;2023-06-19T13:30:18;63376.31;;;32.09;nan
7105;BME280;3594;42.152;24.714;2023-06-19T13:32:43;63352.63;;;32.05;nan
7105;BME280;3594;42.152;24.714;2023-06-19T13:35:08;63406.25;;;32.12;nan